Huvudsida
METAR-TAF:

METAR-TAF

Flygplatser :

Riyadh, Saudiarabien

latitud: 24-56N, longitud: 046-43E, höjd: 614 m

Aktuellt väderrapport

Denna rapport gjordes för 49 minuter sedan, klockan 07:00 UTC
Vind 6 kt från syd/sydost
Temperatur 21°C
Fuktighet 25%
Tryck 1021 hPa
Sikt 10 km eller mer
Inga moln under 1 500 m eller inga cumulonimbus

METAR: OERK 220700Z 15006KT CAVOK 21/00 Q1021 NOSIG

Tid: 10:49 (07:49 UTC)

Väderprognos

Denna rapport gjordes för 2 timmar och 49 minuter sedan, klockan 05:00 UTC
Prognos gäller från 22 kl. 06 UTC till 23 kl. 12 UTC
Vind 6 kt från sydost i byarna ända upp till 16 kt
Sikt: 7000 m
Temporärt
från 22 kl. 06 UTC till 22 kl. 14 UTC
Sikt: 4000 m
utbrett stoft, högt damm drev

TAF: OERK 220500Z 2206/2312 14006G16KT 7000 NSC TEMPO 2206/2214 4000 DU BLDU

Aktuella väderrapporter och prognoser från 4000 flygplatser (METAR- och TAF-rapporter).

De tillgängliga stationerna syns som gula och röda prickar på kartan.

För musen över prickarna för att se namnen på stationerna.

Klicka sedan för att få väderrapporter och prognoser.

För att ändra kartan: Klicka på de gröna knapparna med ett svart kors på för att zooma in; den gröna knappen med ett streck på för att zooma ut; eller på de gröna pilarna för angränsande kartor.


METAR-TAF: